Time;durP1;ratioP1;P1;durP2;ratioP2;P2;SDS_P1;SDS_P2;PMS_P1;PMS_P2;Temp;Humidity;BMP_temperature;BMP_pressure;BME280_temperature;BME280_humidity;BME280_pressure;Samples;Min_cycle;Max_cycle;Signal;HPM_P1;HPM_P2
2021/11/09 00:00:12;;;;;;;;;;;12.80;99.90;;;;;;5014122;28;19906;-76
2021/11/09 00:02:39;;;;;;;;;;;12.80;99.90;;;;;;5012812;28;19912;-76
2021/11/09 00:05:07;;;;;;;;;;;12.90;99.90;;;;;;5014045;28;20282;-76
2021/11/09 00:10:08;;;;;;;;;;;12.90;99.90;;;;;;5014260;28;20366;-77
2021/11/09 00:12:44;;;;;;;;;;;13.00;99.90;;;;;;5013511;28;19917;-77
2021/11/09 00:15:11;;;;;;;;;;;13.00;99.90;;;;;;5012948;28;19906;-75
2021/11/09 00:17:37;;;;;;;;;;;13.00;99.90;;;;;;5012621;28;20433;-75
2021/11/09 00:20:04;;;;;;;;;;;13.00;99.90;;;;;;5014167;28;20381;-76
2021/11/09 00:22:30;;;;;;;;;;;12.90;99.90;;;;;;5013825;28;20370;-76
2021/11/09 00:24:56;;;;;;;;;;;12.90;99.90;;;;;;5012479;28;20001;-75
2021/11/09 00:27:21;;;;;;;;;;;12.80;99.90;;;;;;5012527;28;19905;-76
2021/11/09 00:29:47;;;;;;;;;;;12.70;99.90;;;;;;5012511;28;19906;-77
2021/11/09 00:32:14;;;;;;;;;;;12.60;99.90;;;;;;5013908;28;19905;-76
2021/11/09 00:34:39;;;;;;;;;;;12.70;99.90;;;;;;5013742;28;20369;-76
2021/11/09 00:37:06;;;;;;;;;;;12.70;99.90;;;;;;5012388;28;19906;-76
2021/11/09 00:39:32;;;;;;;;;;;12.60;99.90;;;;;;5013644;28;19910;-75
2021/11/09 00:41:58;;;;;;;;;;;12.50;99.90;;;;;;5013764;28;19906;-75
2021/11/09 00:44:24;;;;;;;;;;;12.50;99.90;;;;;;5013626;28;20028;-76
2021/11/09 00:46:52;;;;;;;;;;;12.50;99.90;;;;;;5013567;28;19916;-76
2021/11/09 00:49:19;;;;;;;;;;;12.60;99.90;;;;;;5013582;28;20358;-75
2021/11/09 00:51:45;;;;;;;;;;;13.00;99.90;;;;;;5013685;28;20258;-76
2021/11/09 00:54:11;;;;;;;;;;;12.90;99.90;;;;;;5012266;28;19996;-75
2021/11/09 00:56:36;;;;;;;;;;;12.90;99.90;;;;;;5014092;28;19929;-76
2021/11/09 00:59:03;;;;;;;;;;;13.10;99.90;;;;;;5017413;28;20289;-76
2021/11/09 01:01:28;;;;;;;;;;;13.10;99.90;;;;;;5016022;28;19905;-76
2021/11/09 01:03:55;;;;;;;;;;;13.20;99.90;;;;;;5017428;28;19960;-76
2021/11/09 01:06:21;;;;;;;;;;;13.40;99.90;;;;;;5017163;28;19916;-75
2021/11/09 01:08:47;;;;;;;;;;;13.40;99.90;;;;;;5017168;28;19963;-76
2021/11/09 01:11:12;;;;;;;;;;;13.40;99.90;;;;;;5016969;28;20374;-76
2021/11/09 01:13:38;;;;;;;;;;;13.40;99.90;;;;;;5015827;28;19912;-76
2021/11/09 01:16:04;;;;;;;;;;;13.20;99.90;;;;;;5017121;28;19909;-76
2021/11/09 01:18:32;;;;;;;;;;;13.00;99.90;;;;;;5017150;28;19906;-75
2021/11/09 01:20:59;;;;;;;;;;;13.00;99.90;;;;;;5015765;28;19905;-75
2021/11/09 01:23:25;;;;;;;;;;;12.90;99.90;;;;;;5016942;28;19910;-76
2021/11/09 01:25:51;;;;;;;;;;;13.00;99.90;;;;;;5016849;28;19909;-77
2021/11/09 01:28:17;;;;;;;;;;;13.20;99.90;;;;;;5017106;28;20369;-76
2021/11/09 01:30:44;;;;;;;;;;;13.30;99.90;;;;;;5015545;28;19905;-77
2021/11/09 01:33:09;;;;;;;;;;;13.40;99.90;;;;;;5016874;28;19905;-75
2021/11/09 01:35:35;;;;;;;;;;;13.50;99.90;;;;;;5016795;28;19959;-76
2021/11/09 01:38:03;;;;;;;;;;;13.20;99.90;;;;;;5016718;28;20322;-76
2021/11/09 01:40:29;;;;;;;;;;;12.80;99.90;;;;;;5015311;28;20267;-76
2021/11/09 01:42:56;;;;;;;;;;;12.70;99.90;;;;;;5016591;28;19963;-76
2021/11/09 01:45:22;;;;;;;;;;;12.70;99.90;;;;;;5017035;28;19909;-76
2021/11/09 01:47:48;;;;;;;;;;;12.70;99.90;;;;;;5016536;28;19912;-76
2021/11/09 01:50:17;;;;;;;;;;;12.60;99.90;;;;;;5015231;28;20297;-76
2021/11/09 01:52:42;;;;;;;;;;;12.70;99.90;;;;;;5016456;28;20424;-76
2021/11/09 01:55:11;;;;;;;;;;;12.60;99.90;;;;;;5015167;28;20004;-76
2021/11/09 01:57:37;;;;;;;;;;;12.60;99.90;;;;;;5016330;28;19911;-76
2021/11/09 02:00:07;;;;;;;;;;;12.80;99.90;;;;;;5016314;28;19905;-75
2021/11/09 02:02:33;;;;;;;;;;;12.80;99.90;;;;;;5015794;28;19936;-75
2021/11/09 02:04:58;;;;;;;;;;;12.80;99.90;;;;;;5016333;28;19955;-76
2021/11/09 02:07:24;;;;;;;;;;;12.80;99.90;;;;;;5016272;28;19909;-76
2021/11/09 02:09:49;;;;;;;;;;;12.70;99.90;;;;;;5015288;28;19991;-76
2021/11/09 02:12:15;;;;;;;;;;;12.60;99.90;;;;;;5015697;28;19924;-76
2021/11/09 02:14:41;;;;;;;;;;;12.50;99.90;;;;;;5016023;28;19952;-76
2021/11/09 02:17:07;;;;;;;;;;;12.60;99.90;;;;;;5014664;28;19905;-76
2021/11/09 02:19:33;;;;;;;;;;;12.80;99.90;;;;;;5014956;28;19913;-76
2021/11/09 02:21:59;;;;;;;;;;;13.00;99.90;;;;;;5014600;28;20285;-75
2021/11/09 02:24:25;;;;;;;;;;;13.20;99.90;;;;;;5016026;28;19917;-76
2021/11/09 02:26:50;;;;;;;;;;;13.20;99.90;;;;;;5014467;28;19909;-76
2021/11/09 02:29:16;;;;;;;;;;;13.00;99.90;;;;;;5015895;28;19905;-76
2021/11/09 02:31:41;;;;;;;;;;;12.90;99.90;;;;;;5015848;28;19964;-75
2021/11/09 02:34:07;;;;;;;;;;;12.80;99.90;;;;;;5015709;28;20043;-76
2021/11/09 02:36:33;;;;;;;;;;;12.60;99.90;;;;;;5016059;28;19996;-76
2021/11/09 02:38:58;;;;;;;;;;;12.40;99.90;;;;;;5015859;28;20401;-76
2021/11/09 02:41:24;;;;;;;;;;;12.40;99.90;;;;;;5015749;28;19915;-77
2021/11/09 02:43:50;;;;;;;;;;;12.40;99.90;;;;;;5014201;28;19905;-76
2021/11/09 02:46:30;;;;;;;;;;;12.60;99.90;;;;;;5015438;28;19963;-76
2021/11/09 02:49:13;;;;;;;;;;;12.40;99.90;;;;;;5015857;28;19911;-75
2021/11/09 02:54:27;;;;;;;;;;;12.60;99.90;;;;;;5015584;28;20449;-76
2021/11/09 02:57:07;;;;;;;;;;;12.40;99.90;;;;;;5015454;28;19905;-76
2021/11/09 03:05:06;;;;;;;;;;;12.50;99.90;;;;;;5014978;28;19969;-76
2021/11/09 03:07:55;;;;;;;;;;;12.60;99.90;;;;;;5013474;28;19912;-76
2021/11/09 03:10:32;;;;;;;;;;;12.60;99.90;;;;;;5014561;28;19952;-75
2021/11/09 03:12:58;;;;;;;;;;;12.70;99.90;;;;;;5013888;28;19917;-76
2021/11/09 03:15:27;;;;;;;;;;;12.80;99.90;;;;;;5015140;28;19909;-76
2021/11/09 03:18:00;;;;;;;;;;;12.70;99.90;;;;;;5014990;28;19913;-75
2021/11/09 03:20:39;;;;;;;;;;;12.50;99.90;;;;;;5013321;28;19905;-75
2021/11/09 03:45:12;;;;;;;;;;;12.20;99.90;;;;;;5014048;28;19912;-76
2021/11/09 03:47:43;;;;;;;;;;;12.20;99.90;;;;;;5014465;28;19929;-76
2021/11/09 03:50:09;;;;;;;;;;;12.30;99.90;;;;;;5012820;28;19905;-76
2021/11/09 03:52:47;;;;;;;;;;;12.20;99.90;;;;;;5014587;28;19905;-76
2021/11/09 03:55:25;;;;;;;;;;;12.20;99.90;;;;;;5014342;28;19911;-76
2021/11/09 04:03:27;;;;;;;;;;;12.40;99.90;;;;;;5014319;28;19905;-76
2021/11/09 04:05:58;;;;;;;;;;;12.30;99.90;;;;;;5014026;28;20428;-75
2021/11/09 04:08:50;;;;;;;;;;;12.30;99.90;;;;;;5014391;28;20354;-76
2021/11/09 04:18:58;;;;;;;;;;;12.40;99.90;;;;;;5013680;28;19905;-77
2021/11/09 04:51:28;;;;;;;;;;;12.20;99.90;;;;;;5020119;28;19952;-76
2021/11/09 05:01:11;;;;;;;;;;;12.20;99.90;;;;;;5019107;28;19916;-76
2021/11/09 05:10:12;;;;;;;;;;;12.30;99.90;;;;;;5019733;28;19912;-76
2021/11/09 05:12:38;;;;;;;;;;;12.30;99.90;;;;;;5019579;28;19918;-76
2021/11/09 05:15:04;;;;;;;;;;;12.10;99.90;;;;;;5020103;28;19928;-77
2021/11/09 05:17:30;;;;;;;;;;;12.10;99.90;;;;;;5020025;28;19912;-75
2021/11/09 05:19:57;;;;;;;;;;;12.10;99.90;;;;;;5020094;28;20336;-75
2021/11/09 05:22:22;;;;;;;;;;;12.30;99.90;;;;;;5020103;28;19905;-76
2021/11/09 05:24:48;;;;;;;;;;;12.30;99.90;;;;;;5019898;28;20389;-75
2021/11/09 05:27:17;;;;;;;;;;;12.20;99.90;;;;;;5020328;28;19910;-76
2021/11/09 05:29:44;;;;;;;;;;;12.10;99.90;;;;;;5018513;28;20412;-76
2021/11/09 05:32:09;;;;;;;;;;;12.00;99.90;;;;;;5020079;28;20227;-75
2021/11/09 05:34:35;;;;;;;;;;;12.00;99.90;;;;;;5019806;28;19905;-76
2021/11/09 05:37:02;;;;;;;;;;;12.10;99.90;;;;;;5019737;28;20000;-75
2021/11/09 05:39:33;;;;;;;;;;;12.20;99.90;;;;;;5019704;28;19906;-75
2021/11/09 05:41:59;;;;;;;;;;;12.40;99.90;;;;;;5020162;28;19906;-75
2021/11/09 05:44:26;;;;;;;;;;;12.40;99.90;;;;;;5016173;28;19905;-76
2021/11/09 05:46:51;;;;;;;;;;;12.50;99.90;;;;;;5016333;28;19913;-76
2021/11/09 05:49:17;;;;;;;;;;;12.60;99.90;;;;;;5016628;28;19943;-75
2021/11/09 05:51:42;;;;;;;;;;;12.60;99.90;;;;;;5016461;28;19905;-76
2021/11/09 05:54:10;;;;;;;;;;;12.50;99.90;;;;;;5015128;28;19913;-75
2021/11/09 05:56:35;;;;;;;;;;;12.40;99.90;;;;;;5016445;28;19905;-75
2021/11/09 05:59:01;;;;;;;;;;;12.20;99.90;;;;;;5016479;28;19999;-76
2021/11/09 06:01:27;;;;;;;;;;;12.30;99.90;;;;;;5016469;28;20020;-75
2021/11/09 06:03:52;;;;;;;;;;;12.20;99.90;;;;;;5016203;28;20330;-76
2021/11/09 06:06:18;;;;;;;;;;;12.10;99.90;;;;;;5014910;28;20004;-75
2021/11/09 06:08:46;;;;;;;;;;;12.20;99.90;;;;;;5016433;28;20436;-75
2021/11/09 06:11:12;;;;;;;;;;;12.20;99.90;;;;;;5016066;28;19917;-76
2021/11/09 06:13:37;;;;;;;;;;;12.10;99.90;;;;;;5016110;28;19909;-76
2021/11/09 06:16:03;;;;;;;;;;;12.10;99.90;;;;;;5016085;28;19905;-75
2021/11/09 06:18:28;;;;;;;;;;;12.10;99.90;;;;;;5016017;28;20412;-75
2021/11/09 06:20:54;;;;;;;;;;;12.10;99.90;;;;;;5015964;28;19909;-76
2021/11/09 06:23:20;;;;;;;;;;;12.20;99.90;;;;;;5015875;28;20381;-76
2021/11/09 06:25:45;;;;;;;;;;;11.90;99.90;;;;;;5015786;28;19962;-76
2021/11/09 06:28:11;;;;;;;;;;;12.10;99.90;;;;;;5016244;28;19920;-76
2021/11/09 06:30:37;;;;;;;;;;;12.30;99.90;;;;;;5015765;28;19913;-75
2021/11/09 06:33:03;;;;;;;;;;;12.50;99.90;;;;;;5015925;28;19906;-75
2021/11/09 06:35:28;;;;;;;;;;;12.40;99.90;;;;;;5015811;28;19960;-76
2021/11/09 06:37:54;;;;;;;;;;;12.30;99.90;;;;;;5015582;28;20048;-76
2021/11/09 06:40:20;;;;;;;;;;;12.50;99.90;;;;;;5015543;28;19913;-76
2021/11/09 06:42:45;;;;;;;;;;;12.50;99.90;;;;;;5015535;28;20301;-76
2021/11/09 06:45:11;;;;;;;;;;;12.40;99.90;;;;;;5015607;28;19992;-76
2021/11/09 06:47:38;;;;;;;;;;;12.50;99.90;;;;;;5015532;28;19906;-76
2021/11/09 06:50:06;;;;;;;;;;;12.70;99.90;;;;;;5013948;28;19906;-76
2021/11/09 06:52:32;;;;;;;;;;;12.60;99.90;;;;;;5015470;28;19909;-76
2021/11/09 06:54:57;;;;;;;;;;;12.70;99.90;;;;;;5014989;28;20284;-75
2021/11/09 06:57:23;;;;;;;;;;;12.80;99.90;;;;;;5015349;28;19909;-75
2021/11/09 06:59:48;;;;;;;;;;;12.80;99.90;;;;;;5015114;28;19955;-75
2021/11/09 07:02:14;;;;;;;;;;;12.50;99.90;;;;;;5015375;28;20003;-76
2021/11/09 07:04:40;;;;;;;;;;;12.30;99.90;;;;;;5015034;28;19905;-75
2021/11/09 07:07:06;;;;;;;;;;;12.30;99.90;;;;;;5015043;28;20349;-75
2021/11/09 07:09:32;;;;;;;;;;;12.50;99.90;;;;;;5013781;28;19906;-75
2021/11/09 07:11:58;;;;;;;;;;;12.50;99.90;;;;;;5014828;28;20262;-76
2021/11/09 07:14:23;;;;;;;;;;;12.50;99.90;;;;;;5015420;28;19917;-76
2021/11/09 07:16:51;;;;;;;;;;;12.40;99.90;;;;;;5013614;28;19905;-75
2021/11/09 07:19:18;;;;;;;;;;;12.50;99.90;;;;;;5014845;28;19912;-76
2021/11/09 07:21:45;;;;;;;;;;;12.40;99.90;;;;;;5014919;28;19905;-75
2021/11/09 07:24:12;;;;;;;;;;;12.30;99.90;;;;;;5014769;28;19947;-76
2021/11/09 07:26:38;;;;;;;;;;;12.40;99.90;;;;;;5013401;28;19936;-76
2021/11/09 07:29:04;;;;;;;;;;;12.40;99.90;;;;;;5014371;28;20386;-76
2021/11/09 07:31:31;;;;;;;;;;;12.20;99.90;;;;;;5013441;28;20012;-76
2021/11/09 07:33:57;;;;;;;;;;;12.30;99.90;;;;;;5013338;28;19954;-76
2021/11/09 07:36:24;;;;;;;;;;;12.50;99.90;;;;;;5014941;28;19911;-76
2021/11/09 07:38:49;;;;;;;;;;;12.40;99.90;;;;;;5014605;28;19905;-75
2021/11/09 07:41:15;;;;;;;;;;;12.40;99.90;;;;;;5014665;28;19905;-75
2021/11/09 07:43:40;;;;;;;;;;;12.40;99.90;;;;;;5014465;28;19910;-76
2021/11/09 07:46:06;;;;;;;;;;;12.20;99.90;;;;;;5014575;28;20273;-75
2021/11/09 07:48:32;;;;;;;;;;;12.00;99.90;;;;;;5013110;28;20392;-76
2021/11/09 07:50:57;;;;;;;;;;;12.00;99.90;;;;;;5014283;28;20004;-75
2021/11/09 07:53:29;;;;;;;;;;;12.10;99.90;;;;;;5014392;28;19913;-76
2021/11/09 08:01:09;;;;;;;;;;;12.50;99.90;;;;;;5014159;28;19912;-76
2021/11/09 08:03:39;;;;;;;;;;;12.60;99.90;;;;;;5014238;28;19910;-75
2021/11/09 08:06:13;;;;;;;;;;;12.40;99.90;;;;;;5013897;28;19913;-76
2021/11/09 08:11:04;;;;;;;;;;;12.40;99.90;;;;;;5014024;28;19922;-75
2021/11/09 08:13:30;;;;;;;;;;;12.40;99.90;;;;;;5012632;28;19988;-77
2021/11/09 08:15:56;;;;;;;;;;;12.40;99.90;;;;;;5013907;28;19905;-75
2021/11/09 08:18:22;;;;;;;;;;;12.40;99.90;;;;;;5013936;28;19913;-76
2021/11/09 08:20:47;;;;;;;;;;;12.30;99.90;;;;;;5013879;28;20393;-75
2021/11/09 08:23:13;;;;;;;;;;;12.40;99.90;;;;;;5013942;28;20036;-75
2021/11/09 08:25:39;;;;;;;;;;;12.40;99.90;;;;;;5013746;28;20286;-76
2021/11/09 08:28:04;;;;;;;;;;;12.40;99.90;;;;;;5014174;28;19909;-75
2021/11/09 08:30:31;;;;;;;;;;;12.30;99.90;;;;;;5014139;28;19906;-76
2021/11/09 08:32:59;;;;;;;;;;;12.30;99.90;;;;;;5013950;28;19912;-75
2021/11/09 08:35:25;;;;;;;;;;;12.50;99.90;;;;;;5013738;28;20402;-76
2021/11/09 08:37:52;;;;;;;;;;;12.50;99.90;;;;;;5013740;28;19905;-76
2021/11/09 08:40:20;;;;;;;;;;;12.70;99.90;;;;;;5012377;28;19909;-76
2021/11/09 08:42:53;;;;;;;;;;;12.80;99.90;;;;;;5013647;28;20341;-75
2021/11/09 08:48:15;;;;;;;;;;;13.20;99.90;;;;;;5013875;28;19955;-76
2021/11/09 08:50:41;;;;;;;;;;;13.50;99.90;;;;;;5013912;28;20019;-76
2021/11/09 08:53:20;;;;;;;;;;;13.70;99.90;;;;;;5012245;28;20337;-76
2021/11/09 09:01:31;;;;;;;;;;;14.60;99.90;;;;;;4997885;28;20342;-75
2021/11/09 09:04:14;;;;;;;;;;;14.70;99.90;;;;;;5013538;28;19906;-75
2021/11/09 09:06:50;;;;;;;;;;;14.40;99.90;;;;;;5013537;28;20398;-76
2021/11/09 09:09:16;;;;;;;;;;;14.40;99.90;;;;;;5013456;28;19988;-76
2021/11/09 09:11:43;;;;;;;;;;;14.50;99.90;;;;;;5011972;28;20382;-76
2021/11/09 09:14:09;;;;;;;;;;;14.30;99.90;;;;;;5013486;28;19905;-76
2021/11/09 09:16:35;;;;;;;;;;;14.10;99.90;;;;;;5013614;28;19909;-76
2021/11/09 09:19:04;;;;;;;;;;;14.00;99.90;;;;;;5015928;28;19960;-76
2021/11/09 09:21:43;;;;;;;;;;;13.90;99.90;;;;;;5017145;28;20009;-76
2021/11/09 09:24:27;;;;;;;;;;;13.80;99.90;;;;;;5017051;28;19912;-77
2021/11/09 09:29:58;;;;;;;;;;;13.10;99.90;;;;;;5016770;28;19953;-76
2021/11/09 09:57:01;;;;;;;;;;;13.30;99.90;;;;;;5016342;28;20350;-76
2021/11/09 09:59:28;;;;;;;;;;;13.80;99.90;;;;;;5015129;28;19906;-76
2021/11/09 10:02:12;;;;;;;;;;;13.90;99.90;;;;;;5016594;28;19906;-76
2021/11/09 10:04:46;;;;;;;;;;;14.00;99.90;;;;;;5016511;28;19931;-76
2021/11/09 10:07:16;;;;;;;;;;;14.10;99.90;;;;;;5014630;28;19952;-75
2021/11/09 10:09:44;;;;;;;;;;;14.10;99.90;;;;;;5016644;28;19906;-76
2021/11/09 10:12:26;;;;;;;;;;;14.20;99.90;;;;;;5014412;28;19983;-75
2021/11/09 10:14:55;;;;;;;;;;;14.20;99.90;;;;;;5016365;28;19905;-76
2021/11/09 10:17:25;;;;;;;;;;;14.30;99.90;;;;;;5016050;28;19937;-77
2021/11/09 10:19:52;;;;;;;;;;;14.40;99.90;;;;;;5016047;28;19920;-76
2021/11/09 10:22:23;;;;;;;;;;;14.80;99.90;;;;;;5015846;28;19909;-76
2021/11/09 10:24:54;;;;;;;;;;;15.10;99.90;;;;;;5015845;28;19909;-75
2021/11/09 10:27:19;;;;;;;;;;;15.00;99.90;;;;;;5015789;28;19909;-76
2021/11/09 10:29:46;;;;;;;;;;;15.20;99.90;;;;;;5015018;28;19944;-76
2021/11/09 10:32:12;;;;;;;;;;;15.20;99.90;;;;;;5015749;28;19996;-75
2021/11/09 10:34:39;;;;;;;;;;;15.50;99.90;;;;;;5014765;28;19973;-77
2021/11/09 10:37:24;;;;;;;;;;;15.60;99.60;;;;;;5015940;28;20396;-76
2021/11/09 10:39:51;;;;;;;;;;;15.80;98.90;;;;;;5014303;28;19906;-77
2021/11/09 10:42:19;;;;;;;;;;;16.00;97.80;;;;;;5015485;28;19912;-76
2021/11/09 10:44:54;;;;;;;;;;;16.00;98.10;;;;;;5015554;28;20476;-76
2021/11/09 10:47:22;;;;;;;;;;;16.10;98.00;;;;;;5015538;28;19910;-77
2021/11/09 10:49:48;;;;;;;;;;;16.70;96.70;;;;;;5015479;28;20439;-76
2021/11/09 10:52:18;;;;;;;;;;;17.60;94.20;;;;;;5015504;28;19905;-76
2021/11/09 10:55:11;;;;;;;;;;;18.40;92.80;;;;;;5015319;28;19905;-77
2021/11/09 11:00:34;;;;;;;;;;;18.70;90.20;;;;;;5015311;28;19906;-77
2021/11/09 11:03:20;;;;;;;;;;;19.50;87.00;;;;;;5015335;28;19905;-77
2021/11/09 11:05:46;;;;;;;;;;;19.90;84.90;;;;;;5015433;28;19910;-77
2021/11/09 11:08:12;;;;;;;;;;;20.20;82.30;;;;;;5015071;28;20405;-76
2021/11/09 11:10:38;;;;;;;;;;;20.50;80.50;;;;;;5014980;28;19912;-78
2021/11/09 11:13:21;;;;;;;;;;;20.40;79.60;;;;;;5013516;28;20362;-77
2021/11/09 11:16:03;;;;;;;;;;;20.40;79.50;;;;;;5014952;28;19910;-77
2021/11/09 11:18:35;;;;;;;;;;;22.20;75.10;;;;;;5014903;28;20043;-76
2021/11/09 11:21:01;;;;;;;;;;;21.50;72.90;;;;;;5014835;28;19906;-76
2021/11/09 11:23:27;;;;;;;;;;;23.00;70.20;;;;;;5013548;28;19968;-76
2021/11/09 11:25:53;;;;;;;;;;;23.10;67.70;;;;;;5015082;28;19916;-79
2021/11/09 11:28:19;;;;;;;;;;;23.30;67.60;;;;;;5014990;28;19909;-77
2021/11/09 11:30:45;;;;;;;;;;;22.90;69.30;;;;;;5014766;28;20263;-76
2021/11/09 11:33:11;;;;;;;;;;;24.80;65.30;;;;;;5014964;28;19933;-78
2021/11/09 11:35:41;;;;;;;;;;;25.40;62.10;;;;;;5014649;28;19951;-77
2021/11/09 11:38:07;;;;;;;;;;;26.40;60.60;;;;;;5013283;28;19909;-79
2021/11/09 11:40:33;;;;;;;;;;;28.50;57.30;;;;;;5014435;28;19912;-77
2021/11/09 11:42:59;;;;;;;;;;;31.80;50.50;;;;;;5013809;28;19928;-77
2021/11/09 11:45:25;;;;;;;;;;;33.60;47.70;;;;;;5013183;28;19909;-78
2021/11/09 11:48:07;;;;;;;;;;;34.50;46.30;;;;;;5014471;28;19905;-77
2021/11/09 11:50:39;;;;;;;;;;;34.30;45.40;;;;;;5014543;28;19906;-78
2021/11/09 11:53:05;;;;;;;;;;;30.90;47.80;;;;;;5014425;28;19915;-77
2021/11/09 11:55:30;;;;;;;;;;;31.80;47.60;;;;;;5014374;28;19905;-78
2021/11/09 11:58:10;;;;;;;;;;;34.50;46.40;;;;;;5014599;28;19912;-78
2021/11/09 12:00:42;;;;;;;;;;;36.70;42.60;;;;;;5014349;28;19913;-78
2021/11/09 12:03:34;;;;;;;;;;;34.10;44.10;;;;;;5012754;28;19956;-79
2021/11/09 12:06:20;;;;;;;;;;;36.10;43.80;;;;;;5013987;28;19955;-79
2021/11/09 12:08:49;;;;;;;;;;;36.30;42.20;;;;;;5013934;28;19967;-78
2021/11/09 12:11:35;;;;;;;;;;;35.40;43.00;;;;;;5013894;28;20340;-78
2021/11/09 12:14:05;;;;;;;;;;;33.50;43.70;;;;;;5013802;28;20366;-78
2021/11/09 12:16:49;;;;;;;;;;;29.50;47.40;;;;;;5012776;28;19905;-77
2021/11/09 12:19:50;;;;;;;;;;;26.90;52.00;;;;;;5014003;28;19916;-77
2021/11/09 12:22:17;;;;;;;;;;;25.30;55.10;;;;;;5011936;28;20000;-78
2021/11/09 12:24:58;;;;;;;;;;;24.50;57.00;;;;;;5013716;28;19910;-76
2021/11/09 12:27:29;;;;;;;;;;;23.60;59.10;;;;;;5013832;28;19916;-77
2021/11/09 12:29:55;;;;;;;;;;;22.20;62.30;;;;;;5012377;28;19909;-78
2021/11/09 12:32:21;;;;;;;;;;;20.90;66.00;;;;;;5014108;28;19955;-76
2021/11/09 12:35:03;;;;;;;;;;;19.80;69.60;;;;;;5014012;28;19909;-76
2021/11/09 12:37:30;;;;;;;;;;;19.40;72.50;;;;;;5013854;28;19905;-77
2021/11/09 12:40:15;;;;;;;;;;;18.80;74.00;;;;;;5013673;28;19992;-77
2021/11/09 12:42:59;;;;;;;;;;;18.40;75.50;;;;;;5013666;28;19959;-76
2021/11/09 12:45:27;;;;;;;;;;;18.30;76.30;;;;;;5013595;28;20015;-77
2021/11/09 12:48:00;;;;;;;;;;;17.80;76.10;;;;;;5013782;28;19912;-77
2021/11/09 12:50:26;;;;;;;;;;;18.20;76.30;;;;;;5013671;28;20404;-77
2021/11/09 12:53:05;;;;;;;;;;;19.20;73.70;;;;;;5014509;28;19988;-77
2021/11/09 12:55:31;;;;;;;;;;;19.60;71.90;;;;;;5017645;28;19924;-77
2021/11/09 12:58:12;;;;;;;;;;;20.30;70.70;;;;;;5017584;28;20289;-76
2021/11/09 13:00:41;;;;;;;;;;;20.50;69.50;;;;;;5015925;28;19906;-78
2021/11/09 13:03:21;;;;;;;;;;;21.00;68.80;;;;;;5017454;28;19905;-76
2021/11/09 13:05:55;;;;;;;;;;;21.30;67.50;;;;;;5017881;28;19913;-77
2021/11/09 13:08:29;;;;;;;;;;;22.00;66.10;;;;;;5017644;28;19909;-77
2021/11/09 13:10:56;;;;;;;;;;;21.70;66.60;;;;;;5015740;28;20378;-77
2021/11/09 13:13:22;;;;;;;;;;;21.70;66.20;;;;;;5017697;28;19906;-77
2021/11/09 13:15:48;;;;;;;;;;;21.50;67.10;;;;;;5016020;28;19912;-77
2021/11/09 13:18:17;;;;;;;;;;;21.10;67.50;;;;;;5017503;28;19912;-77
2021/11/09 13:20:51;;;;;;;;;;;20.30;69.50;;;;;;5017330;28;19992;-76
2021/11/09 13:23:20;;;;;;;;;;;20.50;69.90;;;;;;5015583;28;19953;-76
2021/11/09 13:25:47;;;;;;;;;;;20.50;69.90;;;;;;5016976;28;19910;-76
2021/11/09 13:28:13;;;;;;;;;;;20.20;70.30;;;;;;5017639;28;20006;-76
2021/11/09 13:30:52;;;;;;;;;;;20.20;71.20;;;;;;5016924;28;20362;-77
2021/11/09 13:33:18;;;;;;;;;;;20.40;70.60;;;;;;5016850;28;19906;-77
2021/11/09 13:35:45;;;;;;;;;;;20.50;70.00;;;;;;5016834;28;20277;-77
2021/11/09 13:38:13;;;;;;;;;;;20.50;71.00;;;;;;5017180;28;19912;-76
2021/11/09 13:40:43;;;;;;;;;;;20.40;69.60;;;;;;5017249;28;19955;-77
2021/11/09 13:43:10;;;;;;;;;;;20.30;69.80;;;;;;5016701;28;19905;-77
2021/11/09 13:45:37;;;;;;;;;;;20.60;70.80;;;;;;5016640;28;19913;-77
2021/11/09 13:48:29;;;;;;;;;;;20.70;70.10;;;;;;5016666;28;19906;-76
2021/11/09 13:50:58;;;;;;;;;;;20.20;69.80;;;;;;5016076;28;19959;-77
2021/11/09 13:53:25;;;;;;;;;;;20.10;70.80;;;;;;5016556;28;19905;-77
2021/11/09 13:55:51;;;;;;;;;;;20.00;70.90;;;;;;5016480;28;19905;-77
2021/11/09 13:58:17;;;;;;;;;;;19.70;71.20;;;;;;5016714;28;20069;-77
2021/11/09 14:00:48;;;;;;;;;;;19.50;72.40;;;;;;5016394;28;20269;-77
2021/11/09 14:03:55;;;;;;;;;;;19.30;73.20;;;;;;5016503;28;19906;-77
2021/11/09 14:14:36;;;;;;;;;;;18.40;75.00;;;;;;5015940;28;19941;-76
2021/11/09 14:17:02;;;;;;;;;;;18.70;75.20;;;;;;5016460;28;19905;-76
2021/11/09 14:19:34;;;;;;;;;;;18.80;75.20;;;;;;5016061;28;20269;-77
2021/11/09 14:22:16;;;;;;;;;;;19.50;73.70;;;;;;5015970;28;19933;-77
2021/11/09 14:24:54;;;;;;;;;;;19.60;73.70;;;;;;5015953;28;20377;-76
2021/11/09 14:27:27;;;;;;;;;;;19.30;73.90;;;;;;5015930;28;20358;-77
2021/11/09 14:29:54;;;;;;;;;;;19.30;73.20;;;;;;5014331;28;19955;-77
2021/11/09 14:32:22;;;;;;;;;;;19.00;73.70;;;;;;5015846;28;20289;-76
2021/11/09 14:35:32;;;;;;;;;;;18.50;75.40;;;;;;5014545;28;19936;-77
2021/11/09 14:38:02;;;;;;;;;;;18.60;75.50;;;;;;5014170;28;20293;-77
2021/11/09 14:40:35;;;;;;;;;;;18.40;76.10;;;;;;5015620;28;19913;-77
2021/11/09 14:43:13;;;;;;;;;;;17.90;77.70;;;;;;5015839;28;19909;-77
2021/11/09 14:48:13;;;;;;;;;;;17.50;81.90;;;;;;5016029;28;20015;-76
2021/11/09 14:50:59;;;;;;;;;;;17.80;82.10;;;;;;5015450;28;19905;-76
2021/11/09 14:53:27;;;;;;;;;;;17.80;81.70;;;;;;5015393;28;19912;-77
2021/11/09 14:55:54;;;;;;;;;;;17.70;82.20;;;;;;5015324;28;19956;-77
2021/11/09 14:58:23;;;;;;;;;;;17.70;82.60;;;;;;5015383;28;19905;-77
2021/11/09 15:00:49;;;;;;;;;;;17.70;82.50;;;;;;5015284;28;19905;-76
2021/11/09 15:03:14;;;;;;;;;;;17.70;83.50;;;;;;5015216;28;19909;-76
2021/11/09 15:05:41;;;;;;;;;;;17.60;84.30;;;;;;5015063;28;19959;-75
2021/11/09 15:08:14;;;;;;;;;;;17.50;85.00;;;;;;5015378;28;20362;-77
2021/11/09 15:27:06;;;;;;;;;;;16.80;90.00;;;;;;5014425;28;19916;-76
2021/11/09 15:32:28;;;;;;;;;;;16.60;90.60;;;;;;5010723;28;19948;-76
2021/11/09 15:35:19;;;;;;;;;;;16.50;90.80;;;;;;5014935;28;19905;-76
2021/11/09 15:37:56;;;;;;;;;;;16.50;91.20;;;;;;5014366;28;20392;-76
2021/11/09 15:40:23;;;;;;;;;;;16.70;90.80;;;;;;5013251;28;19912;-76
2021/11/09 15:42:49;;;;;;;;;;;16.70;90.70;;;;;;5014536;28;19992;-77
2021/11/09 15:45:15;;;;;;;;;;;16.80;90.90;;;;;;5013089;28;20381;-77
2021/11/09 15:47:41;;;;;;;;;;;16.70;91.10;;;;;;5014412;28;19910;-77
2021/11/09 15:50:07;;;;;;;;;;;16.60;91.20;;;;;;5014545;28;19906;-77
2021/11/09 15:52:33;;;;;;;;;;;16.10;92.20;;;;;;5014381;28;19948;-77
2021/11/09 15:55:00;;;;;;;;;;;16.00;92.80;;;;;;5014378;28;19905;-76
2021/11/09 15:57:26;;;;;;;;;;;16.10;93.30;;;;;;5014643;28;19909;-77
2021/11/09 15:59:52;;;;;;;;;;;16.20;93.00;;;;;;5014371;28;19912;-77
2021/11/09 16:02:20;;;;;;;;;;;15.90;93.80;;;;;;5014347;28;20358;-76
2021/11/09 16:04:45;;;;;;;;;;;16.00;93.60;;;;;;5014398;28;20379;-76
2021/11/09 16:07:12;;;;;;;;;;;15.90;93.80;;;;;;5014518;28;19916;-76
2021/11/09 16:09:41;;;;;;;;;;;15.80;94.00;;;;;;5014238;28;19944;-77
2021/11/09 16:12:07;;;;;;;;;;;15.70;94.70;;;;;;5013789;28;19917;-77
2021/11/09 16:14:33;;;;;;;;;;;16.00;94.30;;;;;;5012771;28;20281;-77
2021/11/09 16:17:00;;;;;;;;;;;16.00;94.00;;;;;;5013982;28;19905;-77
2021/11/09 16:19:26;;;;;;;;;;;15.80;95.00;;;;;;5014165;28;19910;-76
2021/11/09 16:21:52;;;;;;;;;;;15.60;95.80;;;;;;5014254;28;19905;-76
2021/11/09 16:24:18;;;;;;;;;;;15.60;96.20;;;;;;5013954;28;19912;-76
2021/11/09 16:26:44;;;;;;;;;;;15.50;96.80;;;;;;5013906;28;20376;-77
2021/11/09 16:29:10;;;;;;;;;;;15.50;97.00;;;;;;5013210;28;19936;-78
2021/11/09 16:31:37;;;;;;;;;;;15.60;97.00;;;;;;5014039;28;19944;-76
2021/11/09 16:34:02;;;;;;;;;;;15.50;97.10;;;;;;5013745;28;19959;-77
2021/11/09 16:36:31;;;;;;;;;;;15.40;97.60;;;;;;5013845;28;19909;-77
2021/11/09 16:39:14;;;;;;;;;;;15.30;97.90;;;;;;5013622;28;19937;-76
2021/11/09 16:41:40;;;;;;;;;;;15.30;98.20;;;;;;5013928;28;19929;-76
2021/11/09 16:44:08;;;;;;;;;;;15.20;98.60;;;;;;5014269;28;19905;-77
2021/11/09 16:46:53;;;;;;;;;;;15.30;98.50;;;;;;5013659;28;19909;-76
2021/11/09 16:52:20;;;;;;;;;;;15.60;98.00;;;;;;5013871;28;19905;-70
2021/11/09 16:54:53;;;;;;;;;;;15.40;97.90;;;;;;5013855;28;19909;-78
2021/11/09 17:05:47;;;;;;;;;;;14.90;99.90;;;;;;5013317;28;19909;-79
2021/11/09 18:03:36;;;;;;;;;;;14.90;99.90;;;;;;5016531;28;20416;-77
2021/11/09 18:21:54;;;;;;;;;;;14.40;99.90;;;;;;5015963;28;19943;-77
2021/11/09 18:24:20;;;;;;;;;;;14.50;99.90;;;;;;5016153;28;19905;-77
2021/11/09 18:26:52;;;;;;;;;;;14.80;99.90;;;;;;5014771;28;19916;-78
2021/11/09 18:29:19;;;;;;;;;;;14.60;99.90;;;;;;5016204;28;19912;-78
2021/11/09 18:31:44;;;;;;;;;;;14.70;99.90;;;;;;5016020;28;19996;-78
2021/11/09 18:34:10;;;;;;;;;;;14.70;99.90;;;;;;5015915;28;20338;-78
2021/11/09 18:36:35;;;;;;;;;;;14.70;99.90;;;;;;5015873;28;19912;-77